Jorge Hernandez

Recruteur en chef - Union Magdalena
24 Sept 2028
Dimanche
Processus

Personnalité

Adaptabilité (8) Ambition (3) Controverse (1) Loyauté (6) Pression (14) Professionnalisme (19) Sportivité (14) Tempérament (17)

Profil

Style d'entraînement Démocratique
Diplôme Continental C
Détermination 3
Gestion des joueurs 4
Motivation 10
Discipline 9
Satisfaction professionnelle
100%
Fatigue
0%
Rôle Recruteur en chef
Salaire 50.4K p/s
Contrat 14.03.2029

Performance

Comportement Bon
Efficacité de l'entraînement
29%
Développement des joueurs
55%
Prévention des blessures
40%
Mise en place tactique
20%

Événements récents

A participé à une réunion de recrutement maintenant
A évalué un joueur 7j
A participé à une réunion de recrutement 7j
A évalué un joueur 7j
A évalué un joueur 7j
A évalué un joueur 7j
A évalué un joueur 7j
A évalué un joueur 14j

Suivi en cours

155
Joueur Club Statut Capacité Confiance Observé Dernière observation Dernier vote
Daniel Barrea Godoy Cruz Actif 120 / 129 40% 3 23.09.2028 -
Alejo Dramisino Atlanta Actif 120 / 120 40% 2 23.09.2028 -
Diego Gaitán Maipú Actif 112 / 107 40% 1 23.09.2028 -
Nahuel Curcio Colón Actif 120 / 120 40% 3 19.09.2028 -
John Córdoba Millonarios Actif 116 / 123 40% 3 19.09.2028 -
Federico Álvarez Dinamo Tbilisi Actif 108 / 98 40% 2 19.09.2028 -
Nicolás Retamar Ferro Carril Oeste Actif 122 / 121 40% 2 17.09.2028 -
Tomás Escalante River Plate Actif 126 / 121 40% 1 17.09.2028 -
Tomás Ferreyra Defensores Unidos Actif 111 / 105 40% 1 17.09.2028 -
Antonio Galeano Remo Stars Actif 127 / 118 40% 2 16.09.2028 -
Tobías Leiva Estudiantes Actif 119 / 122 40% 1 16.09.2028 -
Diego García Danubio Actif 115 / 119 40% 2 15.09.2028 -
Emiliano Gómez Boston River Actif 124 / 119 40% 1 15.09.2028 -
Jerónimo Porto Lapegüe San Telmo Actif 109 / 113 40% 1 15.09.2028 -
Matías Sosa Arsenal Actif 108 / 112 40% 1 13.09.2028 -
Diogo Guzmán Montevideo City Torque Actif 116 / 124 40% 1 13.09.2028 -
Sebastián Jaurena San Martín SJ Actif 117 / 111 40% 1 13.09.2028 -
Santiago Gutiérrez Alvarado Actif 107 / 110 40% 2 11.09.2028 -
Camilo Machado Madryn Actif 110 / 107 40% 1 11.09.2028 -
Facundo Nadalín San Martín SJ Actif 117 / 118 40% 1 11.09.2028 -
Gianluca Pugliese Güemes Actif 107 / 104 40% 1 10.09.2028 -
Román Gamarra San Telmo Actif 110 / 106 40% 1 10.09.2028 -
Ramiro Hernandes Belgrano Actif 127 / 134 40% 1 10.09.2028 -
Patricio Moyano Defensores Actif 121 / 122 40% 2 09.09.2028 -
Enzo González Defensores Actif 106 / 107 40% 1 09.09.2028 -
Nicolás Ferreira Wanderers Actif 119 / 119 40% 1 09.09.2028 -
Marco Miori Alvarado Actif 110 / 120 40% 2 07.09.2028 -
Jeizon Ramírez Chacón Metropolitanos Actif 98 / 95 40% 1 07.09.2028 -
Santiago Longo Belgrano Actif 123 / 124 40% 1 07.09.2028 -
Lautaro Disanto Defensores Unidos Actif 117 / 106 40% 2 05.09.2028 -
Esteban Obregón Montevideo City Torque Actif 123 / 127 40% 1 05.09.2028 -
Enzo Hoyos Ferro Carril Oeste Actif 123 / 112 40% 1 05.09.2028 -
Martín Campos Ferro Carril Oeste Actif 126 / 122 40% 2 03.09.2028 -
Lucas Rodríguez Albion Actif 114 / 113 40% 1 03.09.2028 -
Clemente Montes Santiago Wanderers Actif 131 / 125 40% 1 03.09.2028 -
José Barreto Quilmes Actif 114 / 112 40% 3 01.09.2028 -
Rafael Moreno Atletico Venezuela Actif 115 / 105 40% 2 01.09.2028 -
Luciano Cosentino Wanderers Actif 119 / 128 40% 2 31.08.2028 -
Santiago Moyano Central Córdoba SdE Actif 117 / 113 40% 1 31.08.2028 -
Juan Carlos Castellano Deportivo La Guaira Actif 104 / 103 40% 1 31.08.2028 -
Juan Sebastián Herrera Deportivo La Guaira Actif 114 / 106 40% 4 30.08.2028 -
Franco Nicola Liverpool Montevideo Actif 122 / 112 40% 1 30.08.2028 -
Emiliano Saliadarre Miramar Misiones Actif 108 / 118 40% 2 28.08.2028 -
Tomás Pozzo Godoy Cruz Actif 125 / 124 40% 1 28.08.2028 -
Walter Núñez Montevideo City Torque Actif 120 / 114 40% 1 27.08.2028 -
Lautaro Calderón Asante Kotoko Actif 109 / 104 40% 1 26.08.2028 -
Jonás Luna Wanderers Actif 124 / 123 40% 1 26.08.2028 -
Ronaldo Peña Deportivo Lara Actif 111 / 102 40% 2 25.08.2028 -
Abraham Bahachille Carabobo Actif 111 / 103 40% 1 24.08.2028 -
Hakim Sulemana Ashanti Gold Actif 118 / 111 40% 1 23.08.2028 -
Matías Viguet Maipú Actif 118 / 110 40% 1 23.08.2028 -
Ignacio Yepez Cerrito Actif 118 / 103 40% 1 21.08.2028 -
Santiago Sala Güemes Actif 117 / 111 40% 2 20.08.2028 -
Mauro Valiente Estudiantes Actif 112 / 123 40% 1 20.08.2028 -
Thiago Lauro Morón Actif 112 / 119 40% 1 19.08.2028 -
Alessandro Arena Arezzo Actif 135 / 112 40% 1 19.08.2028 -
Delvin Alfonzo Deportivo Tachira Actif 114 / 110 40% 1 18.08.2028 -
Kike Pérez Venezia Actif 136 / 146 40% 1 18.08.2028 -
Richard Figueroa Deportivo Lara Actif 102 / 99 40% 1 14.08.2028 -
Idrissa Touré Monza Actif 138 / 153 40% 1 14.08.2028 -
Vicente Poggi Godoy Cruz Actif 120 / 123 40% 1 10.08.2028 -
Adam Phillips Northampton Town Actif 123 / 108 40% 1 09.08.2028 -
Benicio Baker-Boaitey Mansfield Town Actif 129 / 109 40% 1 08.08.2028 -
Atsuki Ito Bolton Wanderers Actif 133 / 124 40% 1 08.08.2028 -
Carlos Gugenheim Grimsby Town Actif 114 / 119 40% 1 08.08.2028 -
Max Conway Bolton Wanderers Actif 125 / 132 40% 1 07.08.2028 -
Kane Wilson Milton Keynes Dons Actif 120 / 120 40% 1 04.08.2028 -
Ar'jany Martha Rotherham United Actif 126 / 120 40% 1 04.08.2028 -
Ethan Erhahon Cheltenham Town Actif 121 / 119 40% 1 21.06.2028 -
Milton Castagna Walsall Actif 100 / 107 40% 1 21.06.2028 -
Matthew Litherland Harrogate Town Actif 112 / 114 40% 1 20.06.2028 -
George Earthy Reading Actif 111 / 119 40% 1 20.06.2028 -
Jhon Cortez Barranquilla Refusé 79 / 99 69% 1 06.06.2028 Refuser
Matty Stevens AFC Wimbledon Actif 90 / 97 40% 6 30.05.2027 -
Alassana Jatta Notts County Actif 108 / 114 40% 1 23.05.2027 -
Ekain Orobengoa Real Sociedad Actif 111 / 107 40% 3 22.05.2027 -
John Yeboah Venezia Actif 118 / 131 40% 2 22.05.2027 -
Richard Koné Queens Park Rangers Actif 113 / 117 40% 1 21.05.2027 -
Don Bolsius Ascoli Actif 106 / 98 40% 1 20.05.2027 -
Rui Costa Port Vale Actif 100 / 94 40% 3 15.05.2027 -
Filippo Distefano Empoli Actif 127 / 125 40% 1 15.05.2027 -
Tyreece Campbell Charlton Athletic Actif 121 / 116 40% 2 13.05.2027 -
Callum Lang Preston Actif 111 / 123 40% 1 13.05.2027 -
Samuel Kalu Botev Plovdiv Actif 127 / 125 40% 5 12.05.2027 -
Elijah Adebayo Luton Town Actif 124 / 126 40% 1 11.05.2027 -
Ioannis Pittas CSKA Sofia Actif 117 / 135 40% 1 06.05.2027 -
Ettore Gliozzi Mantova Actif 131 / 114 40% 1 02.05.2027 -
Malik Mothersille Stockport County Actif 109 / 100 40% 3 01.05.2027 -
Marco Tumminello Benevento Actif 115 / 106 40% 2 29.04.2027 -
Stephen Humphrys Bradford City Actif 108 / 120 40% 4 29.04.2027 -
Justo Giani Umraniyespor Actif 116 / 133 40% 4 28.04.2027 -
Martin Sekulić Ural Actif 100 / 98 40% 2 28.04.2027 -
Lorent Tolaj Plymouth Argyle Actif 109 / 124 40% 3 26.04.2027 -
Sam Nombe Milton Keynes Dons Actif 125 / 123 40% 3 26.04.2027 -
Federico Martínez MFK Ruzomberok Actif 123 / 131 40% 2 25.04.2027 -
Aaron Drinan Swindon Town Actif 101 / 85 40% 1 18.04.2027 -
Dale Taylor Blackpool Actif 114 / 105 40% 4 17.04.2027 -
Aidomo Emakhu Oxford United Actif 112 / 137 40% 1 14.04.2027 -
Tyrese Shade Burton Albion Actif 86 / 111 40% 1 12.04.2027 -
Peter Itodo Metalist Actif 101 / 114 40% 2 08.04.2027 -
Alberto Cerri Cesena Actif 128 / 111 40% 1 07.04.2027 -
Eric Ramírez Ankaragucu Actif 127 / 115 40% 1 07.04.2027 -
Giacomo Zecca Torres Actif 112 / 87 40% 1 04.04.2027 -
Kyle Wootton Stockport County Actif 136 / 131 40% 2 30.03.2027 -
Will Swan Bradford City Actif 94 / 111 40% 1 30.03.2027 -
Job Ochieng Real Sociedad Actif 112 / 121 40% 2 26.03.2027 -
Mees Rijks Bristol Rovers Actif 118 / 102 40% 1 26.03.2027 -
Egas Cacintura Akhmat Grozny Actif 127 / 104 40% 1 23.03.2027 -
Oleh Kozhushko Bukovyna Actif 119 / 87 40% 1 20.03.2027 -
Oleksii Hutsuliak Polissia Actif 121 / 137 40% 1 18.03.2027 -
Robertino Giacomini Panserraikos Actif 98 / 105 40% 1 17.03.2027 -
Moussakoye Diallo Stade Malien Actif 109 / 112 40% 1 17.03.2027 -
Luca Moro Padova Actif 106 / 114 40% 1 16.03.2027 -
Anatole Abang USM Alger Actif 115 / 104 40% 1 15.03.2027 -
Salah Mohsen El Masry Actif 113 / 124 40% 2 14.03.2027 -
Samuel Tetteh Liberty Professionals Actif 104 / 91 40% 1 12.03.2027 -
Wandile Duba ASO Chlef Actif 93 / 101 40% 2 10.03.2027 -
Stiven Shpendi Empoli Actif 127 / 131 40% 1 10.03.2027 -
Kamran Aliev SKA Khabarovsk Actif 92 / 83 40% 1 08.03.2027 -
Ilja Safronov Rotor Actif 105 / 110 40% 1 06.03.2027 -
Brayan Gil Baltika Actif 137 / 111 40% 3 02.03.2027 -
Ondřej Lingr Korona Actif 133 / 138 40% 1 01.03.2027 -
Nardin Mulahusejnović Vojvodina Actif 108 / 129 40% 2 27.02.2027 -
Thierry Ambrose KV Kortrijk Actif 115 / 131 40% 1 22.02.2027 -
Sam Dalby Bolton Wanderers Actif 125 / 114 40% 1 13.02.2027 -
Vyacheslav Grulev Nizhniy Novgorod Actif 108 / 121 40% 2 12.02.2027 -
Stanislav Ivanov Arda Actif 129 / 124 40% 1 06.02.2027 -
Patrick Schmidt Tarxien Rainbows Actif 95 / 93 40% 1 05.02.2027 -
David Ankeye Zeleznicar Pancevo Actif 113 / 119 40% 1 03.02.2027 -
Yeangel Montero Naxxar Lions Actif 98 / 96 40% 1 02.02.2027 -
Antony Alonso Deportivo Riestra Actif 132 / 131 40% 1 01.02.2027 -
Marezi Portsmouth Actif 114 / 112 40% 1 28.11.2026 -
Marcos Cuenca Zaragoza Actif 96 / 120 40% 1 26.11.2026 -
Alejandro Piedrahita Deportivo Pereira Actif 131 / 127 40% 1 26.11.2026 -
Lautaro Gordillo Colegiales Actif 120 / 120 40% 1 23.11.2026 -
Agustín Gallo Tristán Suárez Actif 112 / 117 40% 1 17.11.2026 -
Lucas Varaldo Morelia Actif 132 / 111 40% 2 15.11.2026 -
José Alvarado Leon Actif 118 / 108 40% 1 15.11.2026 -
Favio Cabral Mitre Actif 122 / 109 40% 1 12.11.2026 -
Ignacio Russo Tigre Actif 119 / 124 40% 1 04.11.2026 -
Renzo Reynaga Patronato Actif 108 / 104 40% 1 02.11.2026 -
Augusto Berrondo Tristán Suárez Actif 103 / 117 40% 1 31.10.2026 -
Wessam Abou Ali Columbus Crew Actif 128 / 135 40% 1 30.10.2026 -
Mohamed-Ali Cho Hull City Actif 122 / 150 40% 1 29.10.2026 -
Pedro Vite Pumas UNAM Actif 108 / 112 40% 1 25.10.2026 -
Ramiro Ruiz Rodríguez Atlético Tucumán Actif 124 / 116 40% 1 25.10.2026 -
Fabrizio Sartori Independiente Rivadavia Actif 119 / 126 40% 1 24.10.2026 -
Lucas Acosta Liverpool Montevideo Actif 109 / 110 40% 1 22.10.2026 -
Bénie Traoré New York City Actif 115 / 107 40% 1 22.10.2026 -
Santiago Toloza O'Higgins Actif 122 / 115 40% 1 21.10.2026 -
Rodrigo López Pumas UNAM Actif 130 / 129 40% 1 20.10.2026 -
Franco Zapiola Platense Actif 124 / 127 40% 1 20.10.2026 -
Alex Luna Instituto Actif 139 / 120 40% 1 18.10.2026 -
Bryan González Guadalajara Actif 131 / 124 40% 1 01.08.2026 -
Giovanni González River Plate Actif 129 / 134 40% 1 01.08.2026 -